sensor_id;sensor_type;location;lat;lon;timestamp;pressure;altitude;pressure_sealevel;temperature
80496;BMP180;69819;48.798;11.770;2023-05-17T00:02:19;97687.00;;;12.40
80496;BMP180;69819;48.798;11.770;2023-05-17T00:04:45;97674.00;;;12.40
80496;BMP180;69819;48.798;11.770;2023-05-17T00:07:11;97676.00;;;12.30
80496;BMP180;69819;48.798;11.770;2023-05-17T00:09:36;97647.00;;;12.30
80496;BMP180;69819;48.798;11.770;2023-05-17T00:12:02;97652.00;;;12.30
80496;BMP180;69819;48.798;11.770;2023-05-17T00:14:29;97682.00;;;12.20
80496;BMP180;69819;48.798;11.770;2023-05-17T00:16:54;97677.00;;;12.20
80496;BMP180;69819;48.798;11.770;2023-05-17T00:19:20;97677.00;;;12.20
80496;BMP180;69819;48.798;11.770;2023-05-17T00:21:46;97637.00;;;12.10
80496;BMP180;69819;48.798;11.770;2023-05-17T00:24:12;97693.00;;;12.10
80496;BMP180;69819;48.798;11.770;2023-05-17T00:26:37;97649.00;;;12.00
80496;BMP180;69819;48.798;11.770;2023-05-17T00:29:03;97692.00;;;12.00
80496;BMP180;69819;48.798;11.770;2023-05-17T00:31:29;97677.00;;;11.90
80496;BMP180;69819;48.798;11.770;2023-05-17T00:33:55;97689.00;;;12.00
80496;BMP180;69819;48.798;11.770;2023-05-17T00:36:21;97661.00;;;11.90
80496;BMP180;69819;48.798;11.770;2023-05-17T00:38:47;97679.00;;;11.90
80496;BMP180;69819;48.798;11.770;2023-05-17T00:41:12;97695.00;;;11.90
80496;BMP180;69819;48.798;11.770;2023-05-17T00:43:38;97633.00;;;11.90
80496;BMP180;69819;48.798;11.770;2023-05-17T00:46:04;97702.00;;;11.90
80496;BMP180;69819;48.798;11.770;2023-05-17T00:48:30;97673.00;;;11.90
80496;BMP180;69819;48.798;11.770;2023-05-17T00:50:58;97693.00;;;11.90
80496;BMP180;69819;48.798;11.770;2023-05-17T00:53:25;97702.00;;;11.80
80496;BMP180;69819;48.798;11.770;2023-05-17T00:55:52;97681.00;;;11.80
80496;BMP180;69819;48.798;11.770;2023-05-17T00:58:19;97688.00;;;11.80
80496;BMP180;69819;48.798;11.770;2023-05-17T01:00:45;97705.00;;;11.80
80496;BMP180;69819;48.798;11.770;2023-05-17T01:03:11;97687.00;;;11.80
80496;BMP180;69819;48.798;11.770;2023-05-17T01:05:37;97705.00;;;11.70
80496;BMP180;69819;48.798;11.770;2023-05-17T01:08:03;97687.00;;;11.70
80496;BMP180;69819;48.798;11.770;2023-05-17T01:11:00;97706.00;;;11.70
80496;BMP180;69819;48.798;11.770;2023-05-17T01:16:28;97709.00;;;11.60
80496;BMP180;69819;48.798;11.770;2023-05-17T01:19:04;97682.00;;;11.60
80496;BMP180;69819;48.798;11.770;2023-05-17T01:24:52;97710.00;;;11.50
80496;BMP180;69819;48.798;11.770;2023-05-17T01:27:22;97692.00;;;11.50
80496;BMP180;69819;48.798;11.770;2023-05-17T01:29:50;97703.00;;;11.50
80496;BMP180;69819;48.798;11.770;2023-05-17T01:32:18;97725.00;;;11.50
80496;BMP180;69819;48.798;11.770;2023-05-17T01:34:45;97714.00;;;11.50
80496;BMP180;69819;48.798;11.770;2023-05-17T01:37:10;97699.00;;;11.40
80496;BMP180;69819;48.798;11.770;2023-05-17T01:39:36;97700.00;;;11.40
80496;BMP180;69819;48.798;11.770;2023-05-17T01:42:31;97715.00;;;11.30
80496;BMP180;69819;48.798;11.770;2023-05-17T01:45:18;97742.00;;;11.30
80496;BMP180;69819;48.798;11.770;2023-05-17T01:48:20;97734.00;;;11.30
80496;BMP180;69819;48.798;11.770;2023-05-17T01:50:51;97720.00;;;11.30
80496;BMP180;69819;48.798;11.770;2023-05-17T01:53:37;97716.00;;;11.20
80496;BMP180;69819;48.798;11.770;2023-05-17T01:56:09;97741.00;;;11.20
80496;BMP180;69819;48.798;11.770;2023-05-17T01:58:46;97706.00;;;11.20
80496;BMP180;69819;48.798;11.770;2023-05-17T02:01:16;97737.00;;;11.20
80496;BMP180;69819;48.798;11.770;2023-05-17T02:03:42;97726.00;;;11.20
80496;BMP180;69819;48.798;11.770;2023-05-17T02:06:08;97694.00;;;11.20
80496;BMP180;69819;48.798;11.770;2023-05-17T02:08:34;97710.00;;;11.20
80496;BMP180;69819;48.798;11.770;2023-05-17T02:10:59;97730.00;;;11.10
80496;BMP180;69819;48.798;11.770;2023-05-17T02:13:25;97734.00;;;11.10
80496;BMP180;69819;48.798;11.770;2023-05-17T02:15:51;97722.00;;;11.10
80496;BMP180;69819;48.798;11.770;2023-05-17T02:18:17;97707.00;;;11.10
80496;BMP180;69819;48.798;11.770;2023-05-17T02:20:46;97725.00;;;11.10
80496;BMP180;69819;48.798;11.770;2023-05-17T02:23:12;97737.00;;;11.10
80496;BMP180;69819;48.798;11.770;2023-05-17T02:25:37;97740.00;;;11.10
80496;BMP180;69819;48.798;11.770;2023-05-17T02:28:03;97700.00;;;11.10
80496;BMP180;69819;48.798;11.770;2023-05-17T02:30:29;97679.00;;;11.10
80496;BMP180;69819;48.798;11.770;2023-05-17T02:32:55;97725.00;;;11.10
80496;BMP180;69819;48.798;11.770;2023-05-17T02:35:21;97704.00;;;11.00
80496;BMP180;69819;48.798;11.770;2023-05-17T02:37:47;97740.00;;;11.10
80496;BMP180;69819;48.798;11.770;2023-05-17T02:40:13;97740.00;;;11.00
80496;BMP180;69819;48.798;11.770;2023-05-17T02:42:38;97741.00;;;11.00
80496;BMP180;69819;48.798;11.770;2023-05-17T02:45:05;97721.00;;;11.00
80496;BMP180;69819;48.798;11.770;2023-05-17T02:47:31;97720.00;;;11.00
80496;BMP180;69819;48.798;11.770;2023-05-17T02:49:56;97730.00;;;10.90
80496;BMP180;69819;48.798;11.770;2023-05-17T02:52:22;97740.00;;;10.90
80496;BMP180;69819;48.798;11.770;2023-05-17T02:54:48;97714.00;;;10.90
80496;BMP180;69819;48.798;11.770;2023-05-17T02:57:14;97725.00;;;10.90
80496;BMP180;69819;48.798;11.770;2023-05-17T02:59:39;97740.00;;;10.80
80496;BMP180;69819;48.798;11.770;2023-05-17T03:02:05;97755.00;;;10.80
80496;BMP180;69819;48.798;11.770;2023-05-17T03:04:32;97717.00;;;10.80
80496;BMP180;69819;48.798;11.770;2023-05-17T03:06:58;97734.00;;;10.80
80496;BMP180;69819;48.798;11.770;2023-05-17T03:09:23;97740.00;;;10.70
80496;BMP180;69819;48.798;11.770;2023-05-17T03:11:49;97751.00;;;10.70
80496;BMP180;69819;48.798;11.770;2023-05-17T03:14:15;97742.00;;;10.70
80496;BMP180;69819;48.798;11.770;2023-05-17T03:16:41;97754.00;;;10.60
80496;BMP180;69819;48.798;11.770;2023-05-17T03:19:06;97721.00;;;10.60
80496;BMP180;69819;48.798;11.770;2023-05-17T03:21:32;97737.00;;;10.60
80496;BMP180;69819;48.798;11.770;2023-05-17T03:23:58;97760.00;;;10.50
80496;BMP180;69819;48.798;11.770;2023-05-17T03:26:24;97745.00;;;10.50
80496;BMP180;69819;48.798;11.770;2023-05-17T03:28:49;97777.00;;;10.50
80496;BMP180;69819;48.798;11.770;2023-05-17T03:31:16;97770.00;;;10.40
80496;BMP180;69819;48.798;11.770;2023-05-17T03:33:42;97718.00;;;10.40
80496;BMP180;69819;48.798;11.770;2023-05-17T03:36:08;97772.00;;;10.40
80496;BMP180;69819;48.798;11.770;2023-05-17T03:38:33;97798.00;;;10.30
80496;BMP180;69819;48.798;11.770;2023-05-17T03:41:00;97761.00;;;10.30
80496;BMP180;69819;48.798;11.770;2023-05-17T03:43:25;97773.00;;;10.30
80496;BMP180;69819;48.798;11.770;2023-05-17T03:45:51;97813.00;;;10.30
80496;BMP180;69819;48.798;11.770;2023-05-17T03:48:17;97811.00;;;10.30
80496;BMP180;69819;48.798;11.770;2023-05-17T03:50:43;97810.00;;;10.00
80496;BMP180;69819;48.798;11.770;2023-05-17T03:53:09;97827.00;;;10.20
80496;BMP180;69819;48.798;11.770;2023-05-17T03:55:35;97793.00;;;10.20
80496;BMP180;69819;48.798;11.770;2023-05-17T03:58:02;97829.00;;;10.20
80496;BMP180;69819;48.798;11.770;2023-05-17T04:00:27;97830.00;;;10.20
80496;BMP180;69819;48.798;11.770;2023-05-17T04:02:53;97801.00;;;10.20
80496;BMP180;69819;48.798;11.770;2023-05-17T04:05:19;97824.00;;;10.20
80496;BMP180;69819;48.798;11.770;2023-05-17T04:07:45;97847.00;;;10.30
80496;BMP180;69819;48.798;11.770;2023-05-17T04:10:11;97836.00;;;10.30
80496;BMP180;69819;48.798;11.770;2023-05-17T04:12:36;97834.00;;;10.30
80496;BMP180;69819;48.798;11.770;2023-05-17T04:15:03;97832.00;;;10.30
80496;BMP180;69819;48.798;11.770;2023-05-17T04:17:29;97845.00;;;10.30
80496;BMP180;69819;48.798;11.770;2023-05-17T04:19:55;97844.00;;;10.40
80496;BMP180;69819;48.798;11.770;2023-05-17T04:22:21;97849.00;;;10.40
80496;BMP180;69819;48.798;11.770;2023-05-17T04:24:47;97851.00;;;10.40
80496;BMP180;69819;48.798;11.770;2023-05-17T04:27:13;97824.00;;;10.40
80496;BMP180;69819;48.798;11.770;2023-05-17T04:29:38;97846.00;;;10.50
80496;BMP180;69819;48.798;11.770;2023-05-17T04:32:07;97860.00;;;10.50
80496;BMP180;69819;48.798;11.770;2023-05-17T04:34:33;97810.00;;;10.60
80496;BMP180;69819;48.798;11.770;2023-05-17T04:36:58;97830.00;;;10.60
80496;BMP180;69819;48.798;11.770;2023-05-17T04:39:24;97868.00;;;10.60
80496;BMP180;69819;48.798;11.770;2023-05-17T04:41:50;97867.00;;;10.70
80496;BMP180;69819;48.798;11.770;2023-05-17T04:44:16;97848.00;;;10.70
80496;BMP180;69819;48.798;11.770;2023-05-17T04:46:42;97880.00;;;10.80
80496;BMP180;69819;48.798;11.770;2023-05-17T04:49:09;97825.00;;;10.80
80496;BMP180;69819;48.798;11.770;2023-05-17T04:51:35;97862.00;;;10.90
80496;BMP180;69819;48.798;11.770;2023-05-17T04:54:01;97867.00;;;11.00
80496;BMP180;69819;48.798;11.770;2023-05-17T04:56:28;97851.00;;;11.10
80496;BMP180;69819;48.798;11.770;2023-05-17T04:58:54;97868.00;;;11.20
80496;BMP180;69819;48.798;11.770;2023-05-17T05:01:20;97845.00;;;11.30
80496;BMP180;69819;48.798;11.770;2023-05-17T05:03:46;97900.00;;;11.50
80496;BMP180;69819;48.798;11.770;2023-05-17T05:06:12;97910.00;;;11.70
80496;BMP180;69819;48.798;11.770;2023-05-17T05:08:38;97887.00;;;12.00
80496;BMP180;69819;48.798;11.770;2023-05-17T05:11:04;97907.00;;;12.20
80496;BMP180;69819;48.798;11.770;2023-05-17T05:13:31;97882.00;;;12.40
80496;BMP180;69819;48.798;11.770;2023-05-17T05:15:56;97912.00;;;12.80
80496;BMP180;69819;48.798;11.770;2023-05-17T05:18:22;97922.00;;;13.00
80496;BMP180;69819;48.798;11.770;2023-05-17T05:20:48;97925.00;;;13.30
80496;BMP180;69819;48.798;11.770;2023-05-17T05:23:14;97898.00;;;13.60
80496;BMP180;69819;48.798;11.770;2023-05-17T05:25:43;97919.00;;;14.00
80496;BMP180;69819;48.798;11.770;2023-05-17T05:28:08;97915.00;;;14.40
80496;BMP180;69819;48.798;11.770;2023-05-17T05:30:35;97921.00;;;14.90
80496;BMP180;69819;48.798;11.770;2023-05-17T05:33:01;97925.00;;;15.40
80496;BMP180;69819;48.798;11.770;2023-05-17T05:35:27;97936.00;;;16.00
80496;BMP180;69819;48.798;11.770;2023-05-17T05:37:58;97933.00;;;16.60
80496;BMP180;69819;48.798;11.770;2023-05-17T05:40:24;97937.00;;;17.10
80496;BMP180;69819;48.798;11.770;2023-05-17T05:42:50;97942.00;;;17.60
80496;BMP180;69819;48.798;11.770;2023-05-17T05:45:17;97939.00;;;18.00
80496;BMP180;69819;48.798;11.770;2023-05-17T05:47:43;97942.00;;;18.30
80496;BMP180;69819;48.798;11.770;2023-05-17T05:50:09;97945.00;;;18.50
80496;BMP180;69819;48.798;11.770;2023-05-17T05:52:36;97946.00;;;18.80
80496;BMP180;69819;48.798;11.770;2023-05-17T05:55:02;97948.00;;;19.20
80496;BMP180;69819;48.798;11.770;2023-05-17T05:57:28;97956.00;;;19.60
80496;BMP180;69819;48.798;11.770;2023-05-17T05:59:53;97962.00;;;19.80
80496;BMP180;69819;48.798;11.770;2023-05-17T06:02:19;97945.00;;;19.90
80496;BMP180;69819;48.798;11.770;2023-05-17T06:04:46;97945.00;;;20.00
80496;BMP180;69819;48.798;11.770;2023-05-17T06:07:13;97952.00;;;20.00
80496;BMP180;69819;48.798;11.770;2023-05-17T06:09:40;97926.00;;;20.20
80496;BMP180;69819;48.798;11.770;2023-05-17T06:12:06;97937.00;;;20.40
80496;BMP180;69819;48.798;11.770;2023-05-17T06:14:32;97950.00;;;20.80
80496;BMP180;69819;48.798;11.770;2023-05-17T06:16:58;97955.00;;;21.10
80496;BMP180;69819;48.798;11.770;2023-05-17T06:19:23;97942.00;;;21.40
80496;BMP180;69819;48.798;11.770;2023-05-17T06:21:49;97955.00;;;21.60
80496;BMP180;69819;48.798;11.770;2023-05-17T06:24:15;97945.00;;;21.90
80496;BMP180;69819;48.798;11.770;2023-05-17T06:26:42;97952.00;;;22.10
80496;BMP180;69819;48.798;11.770;2023-05-17T06:29:11;97961.00;;;22.20
80496;BMP180;69819;48.798;11.770;2023-05-17T06:31:37;97938.00;;;22.10
80496;BMP180;69819;48.798;11.770;2023-05-17T06:34:03;97969.00;;;22.00
80496;BMP180;69819;48.798;11.770;2023-05-17T06:36:29;97984.00;;;21.70
80496;BMP180;69819;48.798;11.770;2023-05-17T06:38:55;97974.00;;;21.40
80496;BMP180;69819;48.798;11.770;2023-05-17T06:41:20;97985.00;;;21.30
80496;BMP180;69819;48.798;11.770;2023-05-17T06:43:46;97982.00;;;21.10
80496;BMP180;69819;48.798;11.770;2023-05-17T06:46:12;97967.00;;;21.10
80496;BMP180;69819;48.798;11.770;2023-05-17T06:48:38;97986.00;;;21.10
80496;BMP180;69819;48.798;11.770;2023-05-17T06:51:04;97983.00;;;21.10
80496;BMP180;69819;48.798;11.770;2023-05-17T06:53:29;97975.00;;;21.10
80496;BMP180;69819;48.798;11.770;2023-05-17T06:55:55;97988.00;;;21.20
80496;BMP180;69819;48.798;11.770;2023-05-17T06:58:21;97974.00;;;21.20
80496;BMP180;69819;48.798;11.770;2023-05-17T07:00:47;97977.00;;;21.10
80496;BMP180;69819;48.798;11.770;2023-05-17T07:03:13;98000.00;;;21.00
80496;BMP180;69819;48.798;11.770;2023-05-17T07:05:38;98003.00;;;21.00
80496;BMP180;69819;48.798;11.770;2023-05-17T07:08:04;97990.00;;;21.00
80496;BMP180;69819;48.798;11.770;2023-05-17T07:10:30;97985.00;;;20.90
80496;BMP180;69819;48.798;11.770;2023-05-17T07:12:56;97994.00;;;21.10
80496;BMP180;69819;48.798;11.770;2023-05-17T07:15:22;97994.00;;;21.10
80496;BMP180;69819;48.798;11.770;2023-05-17T07:17:47;98008.00;;;21.00
80496;BMP180;69819;48.798;11.770;2023-05-17T07:20:13;97996.00;;;21.00
80496;BMP180;69819;48.798;11.770;2023-05-17T07:22:39;97995.00;;;20.90
80496;BMP180;69819;48.798;11.770;2023-05-17T07:25:06;98001.00;;;20.90
80496;BMP180;69819;48.798;11.770;2023-05-17T07:27:32;98016.00;;;20.80
80496;BMP180;69819;48.798;11.770;2023-05-17T07:29:59;98018.00;;;20.90
80496;BMP180;69819;48.798;11.770;2023-05-17T07:32:25;98015.00;;;21.00
80496;BMP180;69819;48.798;11.770;2023-05-17T07:34:51;98013.00;;;21.20
80496;BMP180;69819;48.798;11.770;2023-05-17T07:37:16;98023.00;;;21.40
80496;BMP180;69819;48.798;11.770;2023-05-17T07:39:42;97999.00;;;21.50
80496;BMP180;69819;48.798;11.770;2023-05-17T07:42:08;98001.00;;;21.70
80496;BMP180;69819;48.798;11.770;2023-05-17T07:44:33;98014.00;;;21.90
80496;BMP180;69819;48.798;11.770;2023-05-17T07:46:59;98010.00;;;22.20
80496;BMP180;69819;48.798;11.770;2023-05-17T07:49:26;97992.00;;;22.60
80496;BMP180;69819;48.798;11.770;2023-05-17T07:51:52;98012.00;;;23.00
80496;BMP180;69819;48.798;11.770;2023-05-17T07:54:25;98013.00;;;23.40
80496;BMP180;69819;48.798;11.770;2023-05-17T07:56:54;98023.00;;;23.80
80496;BMP180;69819;48.798;11.770;2023-05-17T07:59:23;98014.00;;;24.10
80496;BMP180;69819;48.798;11.770;2023-05-17T08:01:49;97994.00;;;24.40
80496;BMP180;69819;48.798;11.770;2023-05-17T08:04:15;98010.00;;;24.50
80496;BMP180;69819;48.798;11.770;2023-05-17T08:06:42;98015.00;;;24.50
80496;BMP180;69819;48.798;11.770;2023-05-17T08:09:10;98014.00;;;24.60
80496;BMP180;69819;48.798;11.770;2023-05-17T08:11:36;98003.00;;;24.70
80496;BMP180;69819;48.798;11.770;2023-05-17T08:14:02;98030.00;;;24.90
80496;BMP180;69819;48.798;11.770;2023-05-17T08:16:28;98015.00;;;25.20
80496;BMP180;69819;48.798;11.770;2023-05-17T08:18:54;98026.00;;;25.60
80496;BMP180;69819;48.798;11.770;2023-05-17T08:21:20;98022.00;;;25.90
80496;BMP180;69819;48.798;11.770;2023-05-17T08:23:47;98033.00;;;26.10
80496;BMP180;69819;48.798;11.770;2023-05-17T08:26:12;98001.00;;;26.20
80496;BMP180;69819;48.798;11.770;2023-05-17T08:28:38;98026.00;;;26.40
80496;BMP180;69819;48.798;11.770;2023-05-17T08:31:05;98031.00;;;26.60
80496;BMP180;69819;48.798;11.770;2023-05-17T08:33:31;98043.00;;;26.60
80496;BMP180;69819;48.798;11.770;2023-05-17T08:35:58;98035.00;;;26.70
80496;BMP180;69819;48.798;11.770;2023-05-17T08:38:26;98043.00;;;27.00
80496;BMP180;69819;48.798;11.770;2023-05-17T08:40:53;98028.00;;;27.30
80496;BMP180;69819;48.798;11.770;2023-05-17T08:43:21;98043.00;;;27.70
80496;BMP180;69819;48.798;11.770;2023-05-17T08:45:49;98021.00;;;28.00
80496;BMP180;69819;48.798;11.770;2023-05-17T08:48:16;98029.00;;;28.40
80496;BMP180;69819;48.798;11.770;2023-05-17T08:50:46;98054.00;;;28.70
80496;BMP180;69819;48.798;11.770;2023-05-17T08:53:16;98041.00;;;28.80
80496;BMP180;69819;48.798;11.770;2023-05-17T08:55:46;98050.00;;;28.80
80496;BMP180;69819;48.798;11.770;2023-05-17T08:58:26;98064.00;;;28.40
80496;BMP180;69819;48.798;11.770;2023-05-17T09:00:55;98045.00;;;27.80
80496;BMP180;69819;48.798;11.770;2023-05-17T09:03:23;98052.00;;;27.30
80496;BMP180;69819;48.798;11.770;2023-05-17T09:05:50;98067.00;;;26.90
80496;BMP180;69819;48.798;11.770;2023-05-17T09:08:22;98068.00;;;26.80
80496;BMP180;69819;48.798;11.770;2023-05-17T09:10:49;98056.00;;;26.70
80496;BMP180;69819;48.798;11.770;2023-05-17T09:13:15;98052.00;;;26.80
80496;BMP180;69819;48.798;11.770;2023-05-17T09:15:43;98078.00;;;26.90
80496;BMP180;69819;48.798;11.770;2023-05-17T09:18:10;98065.00;;;26.90
80496;BMP180;69819;48.798;11.770;2023-05-17T09:20:39;98075.00;;;27.00
80496;BMP180;69819;48.798;11.770;2023-05-17T09:23:08;98090.00;;;26.80
80496;BMP180;69819;48.798;11.770;2023-05-17T09:25:35;98087.00;;;26.40
80496;BMP180;69819;48.798;11.770;2023-05-17T09:28:04;98086.00;;;25.90
80496;BMP180;69819;48.798;11.770;2023-05-17T09:30:34;98091.00;;;25.50
80496;BMP180;69819;48.798;11.770;2023-05-17T09:33:10;98068.00;;;25.10
80496;BMP180;69819;48.798;11.770;2023-05-17T09:35:37;98065.00;;;24.80
80496;BMP180;69819;48.798;11.770;2023-05-17T09:38:12;98086.00;;;24.60
80496;BMP180;69819;48.798;11.770;2023-05-17T09:40:46;98074.00;;;24.60
80496;BMP180;69819;48.798;11.770;2023-05-17T09:43:15;98078.00;;;24.70
80496;BMP180;69819;48.798;11.770;2023-05-17T09:45:41;98082.00;;;24.80
80496;BMP180;69819;48.798;11.770;2023-05-17T09:48:17;98098.00;;;24.60
80496;BMP180;69819;48.798;11.770;2023-05-17T09:50:50;98088.00;;;24.40
80496;BMP180;69819;48.798;11.770;2023-05-17T09:53:27;98092.00;;;24.20
80496;BMP180;69819;48.798;11.770;2023-05-17T09:55:59;98094.00;;;24.00
80496;BMP180;69819;48.798;11.770;2023-05-17T09:58:27;98098.00;;;23.90
80496;BMP180;69819;48.798;11.770;2023-05-17T10:01:03;98100.00;;;23.70
80496;BMP180;69819;48.798;11.770;2023-05-17T10:03:32;98094.00;;;23.40
80496;BMP180;69819;48.798;11.770;2023-05-17T10:06:05;98089.00;;;23.10
80496;BMP180;69819;48.798;11.770;2023-05-17T10:08:32;98090.00;;;22.80
80496;BMP180;69819;48.798;11.770;2023-05-17T10:11:09;98088.00;;;22.50
80496;BMP180;69819;48.798;11.770;2023-05-17T10:13:43;98089.00;;;22.20
80496;BMP180;69819;48.798;11.770;2023-05-17T10:16:12;98082.00;;;22.10
80496;BMP180;69819;48.798;11.770;2023-05-17T10:18:39;98066.00;;;21.90
80496;BMP180;69819;48.798;11.770;2023-05-17T10:21:06;98068.00;;;21.70
80496;BMP180;69819;48.798;11.770;2023-05-17T10:23:33;98082.00;;;21.60
80496;BMP180;69819;48.798;11.770;2023-05-17T10:26:00;98047.00;;;21.40
80496;BMP180;69819;48.798;11.770;2023-05-17T10:28:29;98064.00;;;21.30
80496;BMP180;69819;48.798;11.770;2023-05-17T10:30:56;98083.00;;;21.20
80496;BMP180;69819;48.798;11.770;2023-05-17T10:33:25;98051.00;;;21.10
80496;BMP180;69819;48.798;11.770;2023-05-17T10:35:53;98059.00;;;21.10
80496;BMP180;69819;48.798;11.770;2023-05-17T10:38:20;98057.00;;;21.20
80496;BMP180;69819;48.798;11.770;2023-05-17T10:40:49;98061.00;;;21.20
80496;BMP180;69819;48.798;11.770;2023-05-17T10:43:17;98062.00;;;21.30
80496;BMP180;69819;48.798;11.770;2023-05-17T10:45:45;98038.00;;;21.40
80496;BMP180;69819;48.798;11.770;2023-05-17T10:48:14;98028.00;;;21.50
80496;BMP180;69819;48.798;11.770;2023-05-17T10:50:45;98049.00;;;21.60
80496;BMP180;69819;48.798;11.770;2023-05-17T10:53:11;98022.00;;;21.70
80496;BMP180;69819;48.798;11.770;2023-05-17T10:55:41;98049.00;;;21.60
80496;BMP180;69819;48.798;11.770;2023-05-17T10:58:14;98045.00;;;21.60
80496;BMP180;69819;48.798;11.770;2023-05-17T11:00:48;98043.00;;;21.60
80496;BMP180;69819;48.798;11.770;2023-05-17T11:06:10;98051.00;;;21.30
80496;BMP180;69819;48.798;11.770;2023-05-17T11:08:45;98054.00;;;21.30
80496;BMP180;69819;48.798;11.770;2023-05-17T11:11:17;98024.00;;;21.20
80496;BMP180;69819;48.798;11.770;2023-05-17T11:13:54;98047.00;;;21.10
80496;BMP180;69819;48.798;11.770;2023-05-17T11:16:26;98065.00;;;21.00
80496;BMP180;69819;48.798;11.770;2023-05-17T11:18:54;98043.00;;;20.90
80496;BMP180;69819;48.798;11.770;2023-05-17T11:21:22;98044.00;;;20.90
80496;BMP180;69819;48.798;11.770;2023-05-17T11:24:00;98024.00;;;20.80
80496;BMP180;69819;48.798;11.770;2023-05-17T11:26:36;98025.00;;;20.70
80496;BMP180;69819;48.798;11.770;2023-05-17T11:29:07;98016.00;;;20.70
80496;BMP180;69819;48.798;11.770;2023-05-17T11:31:36;98036.00;;;20.80
80496;BMP180;69819;48.798;11.770;2023-05-17T11:34:07;97991.00;;;20.90
80496;BMP180;69819;48.798;11.770;2023-05-17T11:36:50;98002.00;;;21.10
80496;BMP180;69819;48.798;11.770;2023-05-17T11:39:20;98028.00;;;21.30
80496;BMP180;69819;48.798;11.770;2023-05-17T11:41:54;98034.00;;;21.60
80496;BMP180;69819;48.798;11.770;2023-05-17T11:44:41;98039.00;;;21.70
80496;BMP180;69819;48.798;11.770;2023-05-17T11:47:07;98033.00;;;21.90
80496;BMP180;69819;48.798;11.770;2023-05-17T11:49:39;98015.00;;;22.00
80496;BMP180;69819;48.798;11.770;2023-05-17T11:52:06;98031.00;;;22.10
80496;BMP180;69819;48.798;11.770;2023-05-17T11:54:33;97993.00;;;22.10
80496;BMP180;69819;48.798;11.770;2023-05-17T11:57:00;98025.00;;;22.00
80496;BMP180;69819;48.798;11.770;2023-05-17T11:59:36;98027.00;;;21.90
80496;BMP180;69819;48.798;11.770;2023-05-17T12:02:05;98038.00;;;21.70
80496;BMP180;69819;48.798;11.770;2023-05-17T12:04:35;98042.00;;;21.40
80496;BMP180;69819;48.798;11.770;2023-05-17T12:07:02;98010.00;;;21.20
80496;BMP180;69819;48.798;11.770;2023-05-17T12:09:29;98037.00;;;21.10
80496;BMP180;69819;48.798;11.770;2023-05-17T12:11:56;98031.00;;;21.10
80496;BMP180;69819;48.798;11.770;2023-05-17T12:14:23;98038.00;;;21.20
80496;BMP180;69819;48.798;11.770;2023-05-17T12:16:54;98012.00;;;21.10
80496;BMP180;69819;48.798;11.770;2023-05-17T12:19:23;98023.00;;;21.00
80496;BMP180;69819;48.798;11.770;2023-05-17T12:22:08;98026.00;;;20.80
80496;BMP180;69819;48.798;11.770;2023-05-17T12:24:39;98021.00;;;20.70
80496;BMP180;69819;48.798;11.770;2023-05-17T12:27:05;98029.00;;;20.70
80496;BMP180;69819;48.798;11.770;2023-05-17T12:29:31;98021.00;;;20.80
80496;BMP180;69819;48.798;11.770;2023-05-17T12:32:00;98013.00;;;20.90
80496;BMP180;69819;48.798;11.770;2023-05-17T12:34:28;98001.00;;;21.10
80496;BMP180;69819;48.798;11.770;2023-05-17T12:36:55;98037.00;;;21.30
80496;BMP180;69819;48.798;11.770;2023-05-17T12:39:22;98043.00;;;21.40
80496;BMP180;69819;48.798;11.770;2023-05-17T12:41:49;98048.00;;;21.40
80496;BMP180;69819;48.798;11.770;2023-05-17T12:44:18;98049.00;;;21.40
80496;BMP180;69819;48.798;11.770;2023-05-17T12:46:48;98044.00;;;21.20
80496;BMP180;69819;48.798;11.770;2023-05-17T12:49:20;98059.00;;;20.90
80496;BMP180;69819;48.798;11.770;2023-05-17T12:51:47;98045.00;;;20.70
80496;BMP180;69819;48.798;11.770;2023-05-17T12:54:27;98060.00;;;20.50
80496;BMP180;69819;48.798;11.770;2023-05-17T12:56:54;98056.00;;;20.30
80496;BMP180;69819;48.798;11.770;2023-05-17T12:59:20;98021.00;;;20.30
80496;BMP180;69819;48.798;11.770;2023-05-17T13:01:55;98056.00;;;20.30
80496;BMP180;69819;48.798;11.770;2023-05-17T13:04:31;98047.00;;;20.50
80496;BMP180;69819;48.798;11.770;2023-05-17T13:07:00;98053.00;;;20.70
80496;BMP180;69819;48.798;11.770;2023-05-17T13:09:29;98049.00;;;20.80
80496;BMP180;69819;48.798;11.770;2023-05-17T13:11:57;98024.00;;;21.00
80496;BMP180;69819;48.798;11.770;2023-05-17T13:14:41;98042.00;;;21.10
80496;BMP180;69819;48.798;11.770;2023-05-17T13:17:11;98036.00;;;21.30
80496;BMP180;69819;48.798;11.770;2023-05-17T13:19:38;98027.00;;;21.40
80496;BMP180;69819;48.798;11.770;2023-05-17T13:22:05;98022.00;;;21.50
80496;BMP180;69819;48.798;11.770;2023-05-17T13:24:34;98048.00;;;21.50
80496;BMP180;69819;48.798;11.770;2023-05-17T13:27:01;98034.00;;;21.60
80496;BMP180;69819;48.798;11.770;2023-05-17T13:29:28;98060.00;;;21.50
80496;BMP180;69819;48.798;11.770;2023-05-17T13:31:54;98055.00;;;21.30
80496;BMP180;69819;48.798;11.770;2023-05-17T13:34:20;98070.00;;;21.10
80496;BMP180;69819;48.798;11.770;2023-05-17T13:36:47;98065.00;;;20.80
80496;BMP180;69819;48.798;11.770;2023-05-17T13:39:14;98066.00;;;20.50
80496;BMP180;69819;48.798;11.770;2023-05-17T13:41:40;98058.00;;;20.30
80496;BMP180;69819;48.798;11.770;2023-05-17T13:44:06;98039.00;;;20.00
80496;BMP180;69819;48.798;11.770;2023-05-17T13:46:32;98044.00;;;19.80
80496;BMP180;69819;48.798;11.770;2023-05-17T13:48:58;98036.00;;;19.70
80496;BMP180;69819;48.798;11.770;2023-05-17T13:51:24;98044.00;;;19.60
80496;BMP180;69819;48.798;11.770;2023-05-17T13:53:50;98047.00;;;19.40
80496;BMP180;69819;48.798;11.770;2023-05-17T13:56:16;98054.00;;;19.30
80496;BMP180;69819;48.798;11.770;2023-05-17T13:58:42;98072.00;;;19.20
80496;BMP180;69819;48.798;11.770;2023-05-17T14:01:08;98066.00;;;19.10
80496;BMP180;69819;48.798;11.770;2023-05-17T14:03:34;98059.00;;;19.10
80496;BMP180;69819;48.798;11.770;2023-05-17T14:06:02;98053.00;;;19.10
80496;BMP180;69819;48.798;11.770;2023-05-17T14:08:28;98056.00;;;19.20
80496;BMP180;69819;48.798;11.770;2023-05-17T14:10:54;98052.00;;;19.20